sensor_id;sensor_type;location;lat;lon;timestamp;P1;durP1;ratioP1;P2;durP2;ratioP2
16524;SDS011;8375;33.594;-117.718;2023-02-12T00:01:37;5.90;;;1.77;;
16524;SDS011;8375;33.594;-117.718;2023-02-12T00:04:05;9.30;;;1.90;;
16524;SDS011;8375;33.594;-117.718;2023-02-12T00:06:34;13.30;;;2.50;;
16524;SDS011;8375;33.594;-117.718;2023-02-12T00:09:06;7.53;;;2.17;;
16524;SDS011;8375;33.594;-117.718;2023-02-12T00:11:34;10.43;;;2.17;;
16524;SDS011;8375;33.594;-117.718;2023-02-12T00:14:03;7.40;;;1.90;;
16524;SDS011;8375;33.594;-117.718;2023-02-12T00:16:32;8.47;;;2.10;;
16524;SDS011;8375;33.594;-117.718;2023-02-12T00:19:01;9.00;;;2.03;;
16524;SDS011;8375;33.594;-117.718;2023-02-12T00:21:30;8.47;;;2.17;;
16524;SDS011;8375;33.594;-117.718;2023-02-12T00:24:00;11.30;;;1.87;;
16524;SDS011;8375;33.594;-117.718;2023-02-12T00:26:30;10.07;;;2.17;;
16524;SDS011;8375;33.594;-117.718;2023-02-12T00:28:59;9.23;;;3.17;;
16524;SDS011;8375;33.594;-117.718;2023-02-12T00:31:29;7.47;;;2.00;;
16524;SDS011;8375;33.594;-117.718;2023-02-12T00:33:58;13.93;;;2.20;;
16524;SDS011;8375;33.594;-117.718;2023-02-12T00:36:29;14.53;;;2.70;;
16524;SDS011;8375;33.594;-117.718;2023-02-12T00:38:58;10.03;;;2.80;;
16524;SDS011;8375;33.594;-117.718;2023-02-12T00:41:27;11.53;;;2.90;;
16524;SDS011;8375;33.594;-117.718;2023-02-12T00:43:58;11.60;;;3.33;;
16524;SDS011;8375;33.594;-117.718;2023-02-12T00:46:26;12.20;;;3.83;;
16524;SDS011;8375;33.594;-117.718;2023-02-12T00:48:55;11.03;;;4.80;;
16524;SDS011;8375;33.594;-117.718;2023-02-12T00:51:24;13.50;;;3.90;;
16524;SDS011;8375;33.594;-117.718;2023-02-12T00:53:52;8.23;;;2.47;;
16524;SDS011;8375;33.594;-117.718;2023-02-12T00:56:21;9.53;;;1.50;;
16524;SDS011;8375;33.594;-117.718;2023-02-12T00:58:51;8.40;;;2.33;;
16524;SDS011;8375;33.594;-117.718;2023-02-12T01:01:20;10.07;;;2.33;;
16524;SDS011;8375;33.594;-117.718;2023-02-12T01:03:48;9.23;;;2.50;;
16524;SDS011;8375;33.594;-117.718;2023-02-12T01:06:17;12.57;;;4.07;;
16524;SDS011;8375;33.594;-117.718;2023-02-12T01:08:48;13.03;;;5.17;;
16524;SDS011;8375;33.594;-117.718;2023-02-12T01:11:18;13.63;;;2.83;;
16524;SDS011;8375;33.594;-117.718;2023-02-12T01:13:47;14.83;;;2.57;;
16524;SDS011;8375;33.594;-117.718;2023-02-12T01:16:18;7.80;;;2.07;;
16524;SDS011;8375;33.594;-117.718;2023-02-12T01:18:48;9.00;;;2.37;;
16524;SDS011;8375;33.594;-117.718;2023-02-12T01:21:17;9.63;;;2.20;;
16524;SDS011;8375;33.594;-117.718;2023-02-12T01:23:47;8.47;;;2.17;;
16524;SDS011;8375;33.594;-117.718;2023-02-12T01:26:16;11.13;;;2.00;;
16524;SDS011;8375;33.594;-117.718;2023-02-12T01:28:48;7.90;;;1.73;;
16524;SDS011;8375;33.594;-117.718;2023-02-12T01:31:20;10.17;;;2.13;;
16524;SDS011;8375;33.594;-117.718;2023-02-12T01:33:50;11.67;;;2.33;;
16524;SDS011;8375;33.594;-117.718;2023-02-12T01:36:21;9.60;;;2.17;;
16524;SDS011;8375;33.594;-117.718;2023-02-12T01:38:50;12.93;;;3.40;;
16524;SDS011;8375;33.594;-117.718;2023-02-12T01:41:19;10.30;;;2.17;;
16524;SDS011;8375;33.594;-117.718;2023-02-12T01:46:38;11.37;;;2.10;;
16524;SDS011;8375;33.594;-117.718;2023-02-12T01:49:07;9.50;;;2.30;;
16524;SDS011;8375;33.594;-117.718;2023-02-12T01:51:39;14.20;;;2.30;;
16524;SDS011;8375;33.594;-117.718;2023-02-12T01:54:09;8.87;;;2.20;;
16524;SDS011;8375;33.594;-117.718;2023-02-12T01:56:40;9.17;;;2.23;;
16524;SDS011;8375;33.594;-117.718;2023-02-12T01:59:10;7.10;;;2.10;;
16524;SDS011;8375;33.594;-117.718;2023-02-12T02:01:41;10.53;;;2.70;;
16524;SDS011;8375;33.594;-117.718;2023-02-12T02:04:10;5.87;;;1.73;;
16524;SDS011;8375;33.594;-117.718;2023-02-12T02:06:44;8.00;;;1.83;;
16524;SDS011;8375;33.594;-117.718;2023-02-12T02:09:17;7.63;;;2.47;;
16524;SDS011;8375;33.594;-117.718;2023-02-12T02:11:46;8.37;;;1.87;;
16524;SDS011;8375;33.594;-117.718;2023-02-12T02:14:32;11.63;;;2.23;;
16524;SDS011;8375;33.594;-117.718;2023-02-12T02:17:15;8.60;;;2.13;;
16524;SDS011;8375;33.594;-117.718;2023-02-12T02:22:48;10.73;;;2.37;;
16524;SDS011;8375;33.594;-117.718;2023-02-12T02:28:52;12.20;;;3.67;;
16524;SDS011;8375;33.594;-117.718;2023-02-12T02:31:33;10.70;;;2.83;;
16524;SDS011;8375;33.594;-117.718;2023-02-12T02:34:08;10.00;;;2.70;;
16524;SDS011;8375;33.594;-117.718;2023-02-12T02:36:46;12.40;;;2.40;;
16524;SDS011;8375;33.594;-117.718;2023-02-12T02:39:18;9.57;;;2.07;;
16524;SDS011;8375;33.594;-117.718;2023-02-12T02:41:54;13.73;;;2.23;;
16524;SDS011;8375;33.594;-117.718;2023-02-12T02:44:30;8.87;;;2.40;;
16524;SDS011;8375;33.594;-117.718;2023-02-12T02:47:06;10.90;;;2.37;;
16524;SDS011;8375;33.594;-117.718;2023-02-12T02:49:39;10.67;;;2.60;;
16524;SDS011;8375;33.594;-117.718;2023-02-12T02:52:13;12.67;;;2.97;;
16524;SDS011;8375;33.594;-117.718;2023-02-12T02:54:46;9.90;;;2.10;;
16524;SDS011;8375;33.594;-117.718;2023-02-12T02:57:18;9.43;;;2.73;;
16524;SDS011;8375;33.594;-117.718;2023-02-12T02:59:51;12.47;;;2.40;;
16524;SDS011;8375;33.594;-117.718;2023-02-12T03:02:25;9.77;;;2.00;;
16524;SDS011;8375;33.594;-117.718;2023-02-12T03:04:58;6.17;;;1.80;;
16524;SDS011;8375;33.594;-117.718;2023-02-12T03:07:32;8.70;;;2.27;;
16524;SDS011;8375;33.594;-117.718;2023-02-12T03:10:05;11.83;;;3.27;;
16524;SDS011;8375;33.594;-117.718;2023-02-12T03:12:39;9.90;;;2.13;;
16524;SDS011;8375;33.594;-117.718;2023-02-12T03:15:17;9.53;;;2.33;;
16524;SDS011;8375;33.594;-117.718;2023-02-12T03:17:52;10.30;;;2.70;;
16524;SDS011;8375;33.594;-117.718;2023-02-12T03:20:25;7.03;;;2.23;;
16524;SDS011;8375;33.594;-117.718;2023-02-12T03:22:56;9.77;;;2.30;;
16524;SDS011;8375;33.594;-117.718;2023-02-12T03:25:29;8.57;;;2.37;;
16524;SDS011;8375;33.594;-117.718;2023-02-12T03:28:03;12.50;;;2.27;;
16524;SDS011;8375;33.594;-117.718;2023-02-12T03:30:39;9.03;;;2.00;;
16524;SDS011;8375;33.594;-117.718;2023-02-12T03:33:18;8.00;;;1.87;;
16524;SDS011;8375;33.594;-117.718;2023-02-12T03:35:55;7.73;;;1.93;;
16524;SDS011;8375;33.594;-117.718;2023-02-12T03:38:32;13.83;;;2.30;;
16524;SDS011;8375;33.594;-117.718;2023-02-12T03:41:05;12.00;;;2.70;;
16524;SDS011;8375;33.594;-117.718;2023-02-12T03:43:42;7.07;;;1.80;;
16524;SDS011;8375;33.594;-117.718;2023-02-12T03:46:18;10.97;;;2.23;;
16524;SDS011;8375;33.594;-117.718;2023-02-12T03:48:55;8.57;;;1.77;;
16524;SDS011;8375;33.594;-117.718;2023-02-12T03:51:29;10.30;;;1.50;;
16524;SDS011;8375;33.594;-117.718;2023-02-12T03:54:01;6.30;;;1.70;;
16524;SDS011;8375;33.594;-117.718;2023-02-12T03:56:32;9.40;;;2.60;;
16524;SDS011;8375;33.594;-117.718;2023-02-12T03:59:05;9.17;;;2.50;;
16524;SDS011;8375;33.594;-117.718;2023-02-12T04:01:33;9.73;;;2.20;;
16524;SDS011;8375;33.594;-117.718;2023-02-12T04:04:05;5.80;;;2.10;;
16524;SDS011;8375;33.594;-117.718;2023-02-12T04:06:35;7.57;;;1.70;;
16524;SDS011;8375;33.594;-117.718;2023-02-12T04:09:04;7.03;;;2.00;;
16524;SDS011;8375;33.594;-117.718;2023-02-12T04:11:38;7.60;;;1.80;;
16524;SDS011;8375;33.594;-117.718;2023-02-12T04:14:19;9.47;;;2.13;;
16524;SDS011;8375;33.594;-117.718;2023-02-12T04:16:56;15.57;;;2.97;;
16524;SDS011;8375;33.594;-117.718;2023-02-12T04:19:32;7.07;;;2.10;;
16524;SDS011;8375;33.594;-117.718;2023-02-12T04:22:11;7.73;;;2.30;;
16524;SDS011;8375;33.594;-117.718;2023-02-12T04:24:49;8.37;;;2.17;;
16524;SDS011;8375;33.594;-117.718;2023-02-12T04:27:28;13.07;;;2.93;;
16524;SDS011;8375;33.594;-117.718;2023-02-12T04:30:05;11.87;;;2.37;;
16524;SDS011;8375;33.594;-117.718;2023-02-12T04:32:40;11.63;;;2.50;;
16524;SDS011;8375;33.594;-117.718;2023-02-12T04:35:17;9.33;;;2.20;;
16524;SDS011;8375;33.594;-117.718;2023-02-12T04:37:51;10.20;;;2.37;;
16524;SDS011;8375;33.594;-117.718;2023-02-12T04:40:27;10.53;;;2.20;;
16524;SDS011;8375;33.594;-117.718;2023-02-12T04:42:56;12.93;;;2.63;;
16524;SDS011;8375;33.594;-117.718;2023-02-12T04:45:25;8.33;;;1.90;;
16524;SDS011;8375;33.594;-117.718;2023-02-12T04:47:56;8.47;;;1.90;;
16524;SDS011;8375;33.594;-117.718;2023-02-12T04:50:27;9.17;;;2.23;;
16524;SDS011;8375;33.594;-117.718;2023-02-12T04:53:04;7.70;;;2.20;;
16524;SDS011;8375;33.594;-117.718;2023-02-12T04:55:33;10.97;;;2.10;;
16524;SDS011;8375;33.594;-117.718;2023-02-12T04:58:02;11.30;;;2.37;;
16524;SDS011;8375;33.594;-117.718;2023-02-12T05:00:31;9.40;;;2.00;;
16524;SDS011;8375;33.594;-117.718;2023-02-12T05:03:00;15.23;;;2.43;;
16524;SDS011;8375;33.594;-117.718;2023-02-12T05:05:30;8.80;;;2.40;;
16524;SDS011;8375;33.594;-117.718;2023-02-12T05:07:59;8.53;;;2.30;;
16524;SDS011;8375;33.594;-117.718;2023-02-12T05:10:28;11.80;;;1.90;;
16524;SDS011;8375;33.594;-117.718;2023-02-12T05:12:57;9.33;;;2.63;;
16524;SDS011;8375;33.594;-117.718;2023-02-12T05:15:26;13.53;;;2.60;;
16524;SDS011;8375;33.594;-117.718;2023-02-12T05:17:55;11.17;;;2.70;;
16524;SDS011;8375;33.594;-117.718;2023-02-12T05:20:24;11.30;;;2.40;;
16524;SDS011;8375;33.594;-117.718;2023-02-12T05:22:54;5.43;;;1.90;;
16524;SDS011;8375;33.594;-117.718;2023-02-12T05:25:23;7.77;;;2.40;;
16524;SDS011;8375;33.594;-117.718;2023-02-12T05:27:51;11.17;;;2.73;;
16524;SDS011;8375;33.594;-117.718;2023-02-12T05:30:21;7.57;;;2.30;;
16524;SDS011;8375;33.594;-117.718;2023-02-12T05:32:49;10.67;;;2.57;;
16524;SDS011;8375;33.594;-117.718;2023-02-12T05:35:18;7.30;;;2.07;;
16524;SDS011;8375;33.594;-117.718;2023-02-12T05:37:47;10.40;;;2.43;;
16524;SDS011;8375;33.594;-117.718;2023-02-12T05:40:17;8.17;;;2.20;;
16524;SDS011;8375;33.594;-117.718;2023-02-12T05:42:46;6.10;;;2.00;;
16524;SDS011;8375;33.594;-117.718;2023-02-12T05:45:17;6.97;;;2.47;;
16524;SDS011;8375;33.594;-117.718;2023-02-12T05:47:52;10.10;;;2.30;;
16524;SDS011;8375;33.594;-117.718;2023-02-12T05:50:21;14.23;;;3.27;;
16524;SDS011;8375;33.594;-117.718;2023-02-12T05:52:49;7.83;;;2.17;;
16524;SDS011;8375;33.594;-117.718;2023-02-12T05:55:20;8.57;;;2.83;;
16524;SDS011;8375;33.594;-117.718;2023-02-12T05:57:49;11.13;;;2.50;;
16524;SDS011;8375;33.594;-117.718;2023-02-12T06:00:18;7.90;;;2.30;;
16524;SDS011;8375;33.594;-117.718;2023-02-12T06:02:47;8.47;;;2.37;;
16524;SDS011;8375;33.594;-117.718;2023-02-12T06:05:16;11.77;;;2.63;;
16524;SDS011;8375;33.594;-117.718;2023-02-12T06:07:45;5.77;;;2.40;;
16524;SDS011;8375;33.594;-117.718;2023-02-12T06:10:13;8.23;;;2.47;;
16524;SDS011;8375;33.594;-117.718;2023-02-12T06:12:44;11.43;;;2.30;;
16524;SDS011;8375;33.594;-117.718;2023-02-12T06:15:12;9.27;;;2.60;;
16524;SDS011;8375;33.594;-117.718;2023-02-12T06:17:41;11.57;;;2.53;;
16524;SDS011;8375;33.594;-117.718;2023-02-12T06:20:10;10.83;;;2.30;;
16524;SDS011;8375;33.594;-117.718;2023-02-12T06:22:39;8.13;;;2.20;;
16524;SDS011;8375;33.594;-117.718;2023-02-12T06:25:07;9.57;;;2.73;;
16524;SDS011;8375;33.594;-117.718;2023-02-12T06:27:36;9.63;;;2.60;;
16524;SDS011;8375;33.594;-117.718;2023-02-12T06:30:07;7.77;;;2.90;;
16524;SDS011;8375;33.594;-117.718;2023-02-12T06:32:36;10.50;;;3.00;;
16524;SDS011;8375;33.594;-117.718;2023-02-12T06:35:05;8.10;;;2.70;;
16524;SDS011;8375;33.594;-117.718;2023-02-12T06:37:34;10.93;;;2.90;;
16524;SDS011;8375;33.594;-117.718;2023-02-12T06:40:03;7.00;;;3.30;;
16524;SDS011;8375;33.594;-117.718;2023-02-12T06:42:33;9.90;;;3.20;;
16524;SDS011;8375;33.594;-117.718;2023-02-12T06:45:02;8.20;;;2.87;;
16524;SDS011;8375;33.594;-117.718;2023-02-12T06:47:32;10.63;;;3.37;;
16524;SDS011;8375;33.594;-117.718;2023-02-12T06:50:01;11.30;;;3.40;;
16524;SDS011;8375;33.594;-117.718;2023-02-12T06:52:29;10.27;;;3.23;;
16524;SDS011;8375;33.594;-117.718;2023-02-12T06:54:58;10.37;;;3.40;;
16524;SDS011;8375;33.594;-117.718;2023-02-12T06:57:27;8.40;;;3.63;;
16524;SDS011;8375;33.594;-117.718;2023-02-12T06:59:56;8.90;;;3.77;;
16524;SDS011;8375;33.594;-117.718;2023-02-12T07:02:25;10.20;;;3.33;;
16524;SDS011;8375;33.594;-117.718;2023-02-12T07:04:55;12.97;;;3.50;;
16524;SDS011;8375;33.594;-117.718;2023-02-12T07:07:24;9.57;;;3.30;;
16524;SDS011;8375;33.594;-117.718;2023-02-12T07:09:52;12.53;;;3.50;;
16524;SDS011;8375;33.594;-117.718;2023-02-12T07:12:21;11.43;;;3.10;;
16524;SDS011;8375;33.594;-117.718;2023-02-12T07:14:50;16.57;;;3.70;;
16524;SDS011;8375;33.594;-117.718;2023-02-12T07:17:19;9.40;;;3.50;;
16524;SDS011;8375;33.594;-117.718;2023-02-12T07:19:47;11.80;;;4.07;;
16524;SDS011;8375;33.594;-117.718;2023-02-12T07:22:17;14.40;;;4.03;;
16524;SDS011;8375;33.594;-117.718;2023-02-12T07:24:46;8.07;;;3.13;;
16524;SDS011;8375;33.594;-117.718;2023-02-12T07:27:16;9.50;;;2.83;;
16524;SDS011;8375;33.594;-117.718;2023-02-12T07:29:45;8.27;;;2.90;;
16524;SDS011;8375;33.594;-117.718;2023-02-12T07:32:13;11.97;;;4.10;;
16524;SDS011;8375;33.594;-117.718;2023-02-12T07:34:42;11.87;;;3.13;;
16524;SDS011;8375;33.594;-117.718;2023-02-12T07:37:10;9.37;;;2.73;;
16524;SDS011;8375;33.594;-117.718;2023-02-12T07:39:41;9.80;;;2.80;;
16524;SDS011;8375;33.594;-117.718;2023-02-12T07:42:09;9.73;;;2.80;;
16524;SDS011;8375;33.594;-117.718;2023-02-12T07:44:39;10.73;;;3.27;;
16524;SDS011;8375;33.594;-117.718;2023-02-12T07:47:08;7.17;;;2.97;;
16524;SDS011;8375;33.594;-117.718;2023-02-12T07:49:37;10.43;;;2.97;;
16524;SDS011;8375;33.594;-117.718;2023-02-12T07:52:05;8.20;;;3.00;;
16524;SDS011;8375;33.594;-117.718;2023-02-12T07:54:34;10.13;;;3.53;;
16524;SDS011;8375;33.594;-117.718;2023-02-12T07:57:04;13.93;;;5.50;;
16524;SDS011;8375;33.594;-117.718;2023-02-12T07:59:33;16.70;;;5.47;;
16524;SDS011;8375;33.594;-117.718;2023-02-12T08:02:02;17.07;;;5.10;;
16524;SDS011;8375;33.594;-117.718;2023-02-12T08:04:30;10.37;;;4.50;;
16524;SDS011;8375;33.594;-117.718;2023-02-12T08:06:59;12.83;;;4.40;;
16524;SDS011;8375;33.594;-117.718;2023-02-12T08:09:28;7.73;;;3.87;;
16524;SDS011;8375;33.594;-117.718;2023-02-12T08:11:57;15.03;;;4.50;;
16524;SDS011;8375;33.594;-117.718;2023-02-12T08:14:27;11.90;;;5.23;;
16524;SDS011;8375;33.594;-117.718;2023-02-12T08:16:56;8.97;;;4.50;;
16524;SDS011;8375;33.594;-117.718;2023-02-12T08:19:25;9.57;;;4.67;;
16524;SDS011;8375;33.594;-117.718;2023-02-12T08:21:54;13.70;;;5.43;;
16524;SDS011;8375;33.594;-117.718;2023-02-12T08:24:23;11.17;;;4.70;;
16524;SDS011;8375;33.594;-117.718;2023-02-12T08:26:52;10.50;;;4.43;;
16524;SDS011;8375;33.594;-117.718;2023-02-12T08:29:21;10.93;;;3.90;;
16524;SDS011;8375;33.594;-117.718;2023-02-12T08:31:55;9.63;;;4.80;;
16524;SDS011;8375;33.594;-117.718;2023-02-12T08:34:25;13.37;;;4.93;;
16524;SDS011;8375;33.594;-117.718;2023-02-12T08:36:55;12.57;;;4.30;;
16524;SDS011;8375;33.594;-117.718;2023-02-12T08:39:25;11.80;;;3.90;;
16524;SDS011;8375;33.594;-117.718;2023-02-12T08:41:55;10.30;;;4.20;;
16524;SDS011;8375;33.594;-117.718;2023-02-12T08:44:25;11.17;;;4.30;;
16524;SDS011;8375;33.594;-117.718;2023-02-12T08:46:55;11.77;;;4.37;;
16524;SDS011;8375;33.594;-117.718;2023-02-12T08:49:24;11.90;;;4.07;;
16524;SDS011;8375;33.594;-117.718;2023-02-12T08:51:55;8.87;;;3.70;;
16524;SDS011;8375;33.594;-117.718;2023-02-12T08:54:25;7.33;;;3.30;;
16524;SDS011;8375;33.594;-117.718;2023-02-12T08:56:55;13.40;;;3.80;;
16524;SDS011;8375;33.594;-117.718;2023-02-12T08:59:25;14.07;;;3.83;;
16524;SDS011;8375;33.594;-117.718;2023-02-12T09:01:55;8.47;;;3.47;;
16524;SDS011;8375;33.594;-117.718;2023-02-12T09:04:25;14.57;;;4.27;;
16524;SDS011;8375;33.594;-117.718;2023-02-12T09:06:55;10.73;;;4.17;;
16524;SDS011;8375;33.594;-117.718;2023-02-12T09:09:24;10.40;;;4.40;;
16524;SDS011;8375;33.594;-117.718;2023-02-12T09:11:52;11.50;;;4.50;;
16524;SDS011;8375;33.594;-117.718;2023-02-12T09:14:21;11.93;;;3.67;;
16524;SDS011;8375;33.594;-117.718;2023-02-12T09:16:50;15.63;;;3.93;;
16524;SDS011;8375;33.594;-117.718;2023-02-12T09:19:21;8.13;;;3.40;;
16524;SDS011;8375;33.594;-117.718;2023-02-12T09:21:50;9.27;;;3.17;;
16524;SDS011;8375;33.594;-117.718;2023-02-12T09:24:20;9.30;;;3.20;;
16524;SDS011;8375;33.594;-117.718;2023-02-12T09:26:48;7.83;;;3.50;;
16524;SDS011;8375;33.594;-117.718;2023-02-12T09:29:17;9.33;;;3.20;;
16524;SDS011;8375;33.594;-117.718;2023-02-12T09:31:45;10.77;;;3.20;;
16524;SDS011;8375;33.594;-117.718;2023-02-12T09:34:14;9.67;;;3.83;;
16524;SDS011;8375;33.594;-117.718;2023-02-12T09:36:44;13.13;;;3.73;;
16524;SDS011;8375;33.594;-117.718;2023-02-12T09:39:13;7.90;;;3.03;;
16524;SDS011;8375;33.594;-117.718;2023-02-12T09:44:57;10.77;;;3.40;;
16524;SDS011;8375;33.594;-117.718;2023-02-12T09:47:35;14.10;;;5.50;;
16524;SDS011;8375;33.594;-117.718;2023-02-12T09:53:11;11.00;;;3.17;;
16524;SDS011;8375;33.594;-117.718;2023-02-12T09:55:42;12.50;;;2.97;;
16524;SDS011;8375;33.594;-117.718;2023-02-12T09:58:13;8.40;;;3.20;;
16524;SDS011;8375;33.594;-117.718;2023-02-12T10:00:43;9.93;;;3.30;;
16524;SDS011;8375;33.594;-117.718;2023-02-12T10:03:12;9.80;;;2.97;;
16524;SDS011;8375;33.594;-117.718;2023-02-12T10:05:44;7.97;;;2.60;;
16524;SDS011;8375;33.594;-117.718;2023-02-12T10:08:29;11.60;;;3.03;;
16524;SDS011;8375;33.594;-117.718;2023-02-12T10:11:16;8.10;;;2.70;;
16524;SDS011;8375;33.594;-117.718;2023-02-12T10:14:00;10.80;;;3.87;;
16524;SDS011;8375;33.594;-117.718;2023-02-12T10:16:44;10.33;;;3.20;;
16524;SDS011;8375;33.594;-117.718;2023-02-12T10:19:27;16.67;;;3.73;;
16524;SDS011;8375;33.594;-117.718;2023-02-12T10:22:13;8.73;;;2.67;;
16524;SDS011;8375;33.594;-117.718;2023-02-12T10:24:55;8.83;;;3.40;;
16524;SDS011;8375;33.594;-117.718;2023-02-12T10:27:34;8.03;;;3.17;;
16524;SDS011;8375;33.594;-117.718;2023-02-12T10:30:13;9.07;;;2.90;;
16524;SDS011;8375;33.594;-117.718;2023-02-12T10:32:45;12.57;;;2.80;;
16524;SDS011;8375;33.594;-117.718;2023-02-12T10:35:17;7.20;;;2.83;;
16524;SDS011;8375;33.594;-117.718;2023-02-12T10:37:48;8.13;;;2.47;;
16524;SDS011;8375;33.594;-117.718;2023-02-12T10:40:24;6.00;;;2.13;;
16524;SDS011;8375;33.594;-117.718;2023-02-12T10:42:55;7.57;;;2.93;;
16524;SDS011;8375;33.594;-117.718;2023-02-12T10:45:25;12.27;;;2.83;;
16524;SDS011;8375;33.594;-117.718;2023-02-12T10:48:07;9.07;;;2.73;;
16524;SDS011;8375;33.594;-117.718;2023-02-12T10:50:40;11.63;;;2.57;;
16524;SDS011;8375;33.594;-117.718;2023-02-12T10:53:17;9.63;;;2.83;;
16524;SDS011;8375;33.594;-117.718;2023-02-12T10:55:49;7.37;;;2.20;;
16524;SDS011;8375;33.594;-117.718;2023-02-12T10:58:40;7.30;;;2.40;;
16524;SDS011;8375;33.594;-117.718;2023-02-12T11:01:19;6.27;;;2.23;;
16524;SDS011;8375;33.594;-117.718;2023-02-12T11:03:50;6.73;;;2.40;;
16524;SDS011;8375;33.594;-117.718;2023-02-12T11:06:20;11.63;;;2.57;;
16524;SDS011;8375;33.594;-117.718;2023-02-12T11:08:52;8.67;;;2.90;;
16524;SDS011;8375;33.594;-117.718;2023-02-12T11:11:23;10.83;;;2.70;;
16524;SDS011;8375;33.594;-117.718;2023-02-12T11:13:56;10.33;;;2.83;;
16524;SDS011;8375;33.594;-117.718;2023-02-12T11:16:27;9.07;;;3.00;;
16524;SDS011;8375;33.594;-117.718;2023-02-12T11:18:58;9.50;;;3.17;;
16524;SDS011;8375;33.594;-117.718;2023-02-12T11:21:29;8.90;;;2.77;;
16524;SDS011;8375;33.594;-117.718;2023-02-12T11:24:06;7.00;;;2.57;;
16524;SDS011;8375;33.594;-117.718;2023-02-12T11:26:50;5.23;;;1.97;;
16524;SDS011;8375;33.594;-117.718;2023-02-12T11:29:38;7.93;;;2.07;;
16524;SDS011;8375;33.594;-117.718;2023-02-12T11:32:07;8.40;;;2.17;;
16524;SDS011;8375;33.594;-117.718;2023-02-12T11:34:42;9.03;;;2.10;;
16524;SDS011;8375;33.594;-117.718;2023-02-12T11:37:13;7.00;;;2.10;;
16524;SDS011;8375;33.594;-117.718;2023-02-12T11:39:45;9.13;;;2.20;;
16524;SDS011;8375;33.594;-117.718;2023-02-12T11:42:17;10.53;;;2.43;;
16524;SDS011;8375;33.594;-117.718;2023-02-12T11:44:48;6.97;;;2.07;;
16524;SDS011;8375;33.594;-117.718;2023-02-12T11:47:20;8.97;;;2.40;;
16524;SDS011;8375;33.594;-117.718;2023-02-12T11:49:53;8.13;;;2.23;;
16524;SDS011;8375;33.594;-117.718;2023-02-12T11:52:24;9.37;;;2.17;;
16524;SDS011;8375;33.594;-117.718;2023-02-12T11:54:56;6.10;;;2.03;;
16524;SDS011;8375;33.594;-117.718;2023-02-12T11:57:37;9.20;;;2.07;;
16524;SDS011;8375;33.594;-117.718;2023-02-12T12:00:12;6.37;;;1.90;;
16524;SDS011;8375;33.594;-117.718;2023-02-12T12:02:44;4.13;;;1.63;;
16524;SDS011;8375;33.594;-117.718;2023-02-12T12:05:17;7.03;;;1.80;;
16524;SDS011;8375;33.594;-117.718;2023-02-12T12:07:48;5.87;;;2.10;;
16524;SDS011;8375;33.594;-117.718;2023-02-12T12:10:24;6.23;;;2.03;;
16524;SDS011;8375;33.594;-117.718;2023-02-12T12:13:03;6.90;;;2.00;;
16524;SDS011;8375;33.594;-117.718;2023-02-12T12:15:39;6.40;;;1.77;;
16524;SDS011;8375;33.594;-117.718;2023-02-12T12:18:30;6.07;;;1.80;;
16524;SDS011;8375;33.594;-117.718;2023-02-12T12:21:23;7.37;;;1.83;;
16524;SDS011;8375;33.594;-117.718;2023-02-12T12:23:57;6.57;;;1.87;;
16524;SDS011;8375;33.594;-117.718;2023-02-12T12:26:32;6.07;;;1.83;;
16524;SDS011;8375;33.594;-117.718;2023-02-12T12:29:03;7.03;;;2.30;;
16524;SDS011;8375;33.594;-117.718;2023-02-12T12:31:38;11.27;;;2.30;;
16524;SDS011;8375;33.594;-117.718;2023-02-12T12:34:10;7.20;;;2.10;;
16524;SDS011;8375;33.594;-117.718;2023-02-12T12:36:55;6.87;;;1.97;;
16524;SDS011;8375;33.594;-117.718;2023-02-12T12:39:38;7.00;;;2.63;;
16524;SDS011;8375;33.594;-117.718;2023-02-12T12:42:31;9.60;;;1.93;;
16524;SDS011;8375;33.594;-117.718;2023-02-12T12:48:49;5.43;;;1.70;;
16524;SDS011;8375;33.594;-117.718;2023-02-12T12:51:42;5.00;;;1.90;;
16524;SDS011;8375;33.594;-117.718;2023-02-12T12:54:30;7.80;;;2.23;;
16524;SDS011;8375;33.594;-117.718;2023-02-12T12:57:09;5.70;;;1.60;;
16524;SDS011;8375;33.594;-117.718;2023-02-12T13:02:48;9.23;;;2.40;;
16524;SDS011;8375;33.594;-117.718;2023-02-12T13:06:00;4.90;;;1.60;;
16524;SDS011;8375;33.594;-117.718;2023-02-12T13:08:56;9.83;;;2.10;;
16524;SDS011;8375;33.594;-117.718;2023-02-12T13:11:44;5.63;;;1.90;;
16524;SDS011;8375;33.594;-117.718;2023-02-12T13:14:26;7.13;;;1.97;;
16524;SDS011;8375;33.594;-117.718;2023-02-12T13:17:03;6.10;;;1.63;;
16524;SDS011;8375;33.594;-117.718;2023-02-12T13:19:43;5.97;;;1.70;;
16524;SDS011;8375;33.594;-117.718;2023-02-12T13:22:23;4.00;;;1.70;;
16524;SDS011;8375;33.594;-117.718;2023-02-12T13:25:00;4.77;;;1.53;;
16524;SDS011;8375;33.594;-117.718;2023-02-12T13:27:40;5.07;;;1.63;;
16524;SDS011;8375;33.594;-117.718;2023-02-12T13:30:16;7.43;;;2.20;;
16524;SDS011;8375;33.594;-117.718;2023-02-12T13:32:49;6.30;;;2.03;;
16524;SDS011;8375;33.594;-117.718;2023-02-12T13:35:25;4.83;;;2.53;;
16524;SDS011;8375;33.594;-117.718;2023-02-12T13:37:58;7.37;;;1.87;;
16524;SDS011;8375;33.594;-117.718;2023-02-12T13:40:29;3.43;;;1.37;;
16524;SDS011;8375;33.594;-117.718;2023-02-12T13:43:00;9.37;;;2.53;;
16524;SDS011;8375;33.594;-117.718;2023-02-12T13:45:40;5.30;;;1.87;;
16524;SDS011;8375;33.594;-117.718;2023-02-12T13:48:24;5.60;;;2.00;;
16524;SDS011;8375;33.594;-117.718;2023-02-12T13:51:15;4.43;;;2.27;;
16524;SDS011;8375;33.594;-117.718;2023-02-12T13:53:55;5.67;;;2.47;;
16524;SDS011;8375;33.594;-117.718;2023-02-12T13:56:37;6.07;;;2.77;;
16524;SDS011;8375;33.594;-117.718;2023-02-12T14:02:24;7.43;;;2.10;;
16524;SDS011;8375;33.594;-117.718;2023-02-12T14:05:14;5.10;;;1.50;;
16524;SDS011;8375;33.594;-117.718;2023-02-12T14:07:48;5.97;;;1.47;;
16524;SDS011;8375;33.594;-117.718;2023-02-12T14:10:21;4.57;;;1.50;;
16524;SDS011;8375;33.594;-117.718;2023-02-12T14:12:56;5.13;;;1.90;;
16524;SDS011;8375;33.594;-117.718;2023-02-12T14:15:37;7.90;;;1.70;;
16524;SDS011;8375;33.594;-117.718;2023-02-12T14:18:23;5.07;;;1.40;;
16524;SDS011;8375;33.594;-117.718;2023-02-12T14:27:16;5.23;;;1.30;;
16524;SDS011;8375;33.594;-117.718;2023-02-12T14:38:57;4.63;;;1.33;;
16524;SDS011;8375;33.594;-117.718;2023-02-12T14:41:29;3.37;;;1.43;;
16524;SDS011;8375;33.594;-117.718;2023-02-12T14:47:13;3.93;;;1.60;;
16524;SDS011;8375;33.594;-117.718;2023-02-12T14:50:05;4.93;;;1.63;;
16524;SDS011;8375;33.594;-117.718;2023-02-12T14:52:39;5.73;;;2.10;;
16524;SDS011;8375;33.594;-117.718;2023-02-12T14:55:19;6.47;;;1.77;;
16524;SDS011;8375;33.594;-117.718;2023-02-12T14:57:54;5.00;;;2.00;;
16524;SDS011;8375;33.594;-117.718;2023-02-12T15:00:26;4.63;;;1.50;;
16524;SDS011;8375;33.594;-117.718;2023-02-12T15:03:05;4.57;;;1.43;;
16524;SDS011;8375;33.594;-117.718;2023-02-12T15:05:46;3.07;;;1.27;;
16524;SDS011;8375;33.594;-117.718;2023-02-12T15:08:25;3.57;;;1.60;;
16524;SDS011;8375;33.594;-117.718;2023-02-12T15:11:01;4.73;;;1.40;;
16524;SDS011;8375;33.594;-117.718;2023-02-12T15:13:41;4.60;;;1.60;;
16524;SDS011;8375;33.594;-117.718;2023-02-12T15:16:16;3.37;;;1.53;;
16524;SDS011;8375;33.594;-117.718;2023-02-12T15:18:55;2.77;;;1.37;;
16524;SDS011;8375;33.594;-117.718;2023-02-12T15:21:29;6.57;;;1.90;;
16524;SDS011;8375;33.594;-117.718;2023-02-12T15:24:01;5.50;;;1.70;;
16524;SDS011;8375;33.594;-117.718;2023-02-12T15:26:32;3.93;;;1.70;;
16524;SDS011;8375;33.594;-117.718;2023-02-12T15:29:03;5.53;;;1.37;;
16524;SDS011;8375;33.594;-117.718;2023-02-12T15:31:33;4.63;;;1.60;;
16524;SDS011;8375;33.594;-117.718;2023-02-12T15:34:04;5.17;;;1.70;;